Latest Weather Observations for Port Macquarie Airport

IDN60801

Issued at 2:05 am EST Friday 3 October 2014 (issued every 30 minutes, with the page automatically refreshed every 10 minutes)

About weather observations | Map of weather stations | Latest weather observations for NSW | Other Formats
Station Details ID: 060139 Name: PORT MACQUARIE AIRPORT AWS Lat: -31.43 Lon: 152.87 Height: 4.2 m
Data from the previous 72 hours. | See also: Recent months at Port Macquarie Airport
Date/Time
EST
Temp
°C
App
Temp
°C
Dew
Point
Rel
Hum
%
Delta-T
°C
Wind Press
QNH
hPa
Press
MSL
hPa
Rain
since 9 am
mm
Dir
 
Spd
km/h
Gust
km/h
Spd
kts
Gust
kts
03/02:00am 8.4 7.8 7.6 95 0.4 NNW 0 0 0 0 1018.4 1018.4 0.0
03/01:30am 7.9 7.1 6.7 92 0.6 NNW 0 0 0 0 1018.7 1018.7 0.0
03/01:00am 9.3 8.9 8.4 94 0.4 CALM 0 0 0 0 1018.9 1018.9 0.0
03/12:30am 9.0 8.5 7.9 93 0.5 CALM 0 0 0 0 1019.2 1019.2 0.0
03/12:00am 8.8 8.2 7.4 91 0.7 NNW 0 0 0 0 1019.5 1019.5 0.0
 
Date/Time
EST
Temp
°C
App
Temp
°C
Dew
Point
Rel
Hum
%
Delta-T
°C
Wind Press
QNH
hPa
Press
MSL
hPa
Rain
since 9 am
mm
Dir
 
Spd
km/h
Gust
km/h
Spd
kts
Gust
kts
02/11:30pm 9.4 8.9 8.0 91 0.7 CALM 0 0 0 0 1019.7 1019.7 0.0
02/11:00pm 9.8 9.5 8.6 92 0.6 CALM 0 0 0 0 1019.9 1019.9 0.0
02/10:30pm 10.7 10.6 9.5 92 0.6 CALM 0 0 0 0 1020.0 1020.0 0.0
02/10:00pm 10.2 9.9 8.8 91 0.7 CALM 0 0 0 0 1020.1 1020.1 0.0
02/09:30pm 10.0 9.5 7.9 87 1.0 N 0 0 0 0 1020.3 1020.3 0.0
02/09:00pm 11.1 10.8 8.7 85 1.2 CALM 0 0 0 0 1020.5 1020.5 0.0
02/08:30pm 11.3 11.0 8.5 83 1.4 CALM 0 0 0 0 1020.5 1020.5 0.0
02/08:24pm 11.6 11.4 9.0 84 1.3 CALM 0 0 0 0 1020.5 1020.5 0.0
02/08:06pm 11.8 10.7 8.6 81 1.6 N 4 7 2 4 1020.5 1020.5 0.0
02/08:00pm 12.2 10.8 9.4 83 1.4 N 7 7 4 4 1020.4 1020.4 0.0
02/07:30pm 12.5 11.2 9.3 81 1.6 N 6 7 3 4 1020.3 1020.3 0.0
02/07:00pm 14.0 12.5 9.0 72 2.5 NNE 7 9 4 5 1020.1 1020.1 0.0
02/06:30pm 16.0 14.7 9.9 67 3.2 N 7 11 4 6 1019.9 1019.9 0.0
02/06:00pm 17.1 14.9 9.5 61 4.0 NNE 11 15 6 8 1019.6 1019.6 0.0
02/05:30pm 17.7 14.7 9.3 58 4.4 NNE 15 19 8 10 1019.3 1019.3 0.0
02/05:00pm 18.4 15.0 9.2 55 4.8 NE 17 24 9 13 1019.1 1019.1 0.0
02/04:30pm 18.8 15.1 9.6 55 4.9 NE 19 26 10 14 1019.0 1019.0 0.0
02/04:00pm 18.8 14.7 8.5 51 5.3 NE 20 26 11 14 1018.7 1018.7 0.0
02/03:30pm 19.2 15.1 8.5 50 5.6 ENE 20 30 11 16 1018.8 1018.8 0.0
02/03:00pm 19.3 15.2 8.6 50 5.6 ENE 20 30 11 16 1018.9 1018.9 0.0
02/02:30pm 19.6 15.5 8.6 49 5.7 NE 20 30 11 16 1018.9 1018.9 0.0
02/02:00pm 19.8 15.5 7.9 46 6.1 ENE 20 28 11 15 1019.2 1019.2 0.0
02/01:30pm 19.6 14.9 7.7 46 6.1 ENE 22 28 12 15 1019.5 1019.5 0.0
02/01:00pm 19.9 15.5 7.6 45 6.3 ENE 20 28 11 15 1019.9 1019.9 0.0
02/12:30pm 19.8 15.1 7.9 46 6.1 NE 22 28 12 15 1020.2 1020.2 0.0
02/12:00pm 19.9 15.7 7.3 44 6.4 NE 19 24 10 13 1020.7 1020.7 0.0
02/11:00am 19.8 16.8 5.8 40 6.9 N 11 19 6 10 1021.7 1021.7 0.0
02/10:30am 19.7 16.8 6.4 42 6.6 NNW 11 15 6 8 1022.2 1022.2 0.0
02/10:00am 19.2 16.6 6.0 42 6.5 WNW 9 15 5 8 1022.5 1022.5 0.0
02/09:30am 19.0 16.6 6.8 45 6.1 WNW 9 15 5 8 1022.7 1022.7 0.0
02/09:00am 18.1 15.3 5.3 43 6.2 W 9 13 5 7 1023.0 1023.0 0.0
02/08:30am 16.6 13.3 6.4 51 5.0 WNW 13 19 7 10 1023.0 1023.0 0.0
02/08:00am 15.3 11.6 6.3 55 4.3 WNW 15 20 8 11 1023.0 1023.0 0.0
02/07:30am 14.1 10.1 6.5 60 3.7 WNW 17 20 9 11 1023.1 1023.1 0.0
02/07:00am 12.8 8.7 6.2 64 3.1 WNW 17 24 9 13 1022.9 1022.9 0.0
02/06:30am 11.5 8.1 5.8 68 2.6 W 13 19 7 10 1022.8 1022.8 0.0
02/06:00am 10.4 6.9 5.4 71 2.3 W 13 17 7 9 1022.6 1022.6 0.0
02/05:30am 10.4 6.5 5.2 70 2.4 W 15 20 8 11 1022.2 1022.2 0.0
02/05:00am 10.7 6.7 5.0 68 2.6 W 15 20 8 11 1021.9 1021.9 0.0
02/04:30am 10.8 6.1 5.1 68 2.6 WNW 19 24 10 13 1021.7 1021.7 0.0
02/04:00am 10.6 7.0 5.2 69 2.4 W 13 17 7 9 1021.8 1021.8 0.0
02/03:30am 10.9 7.0 5.2 68 2.6 W 15 20 8 11 1021.6 1021.6 0.0
02/03:00am 11.0 6.7 5.1 67 2.7 W 17 22 9 12 1021.6 1021.6 0.0
02/02:30am 11.1 7.5 5.2 67 2.7 W 13 17 7 9 1022.0 1022.0 0.0
02/02:00am 11.4 7.1 5.3 66 2.8 W 17 20 9 11 1022.1 1022.1 0.0
02/01:30am 11.6 7.3 5.3 65 2.9 W 17 22 9 12 1022.2 1022.2 0.0
02/01:00am 11.8 7.9 5.4 65 2.9 W 15 19 8 10 1022.4 1022.4 0.0
02/12:30am 11.8 8.3 5.4 65 3.0 W 13 19 7 10 1022.6 1022.6 0.0
02/12:00am 11.5 8.8 5.8 68 2.6 W 9 13 5 7 1022.8 1022.8 0.0
 
Date/Time
EST
Temp
°C
App
Temp
°C
Dew
Point
Rel
Hum
%
Delta-T
°C
Wind Press
QNH
hPa
Press
MSL
hPa
Rain
since 9 am
mm
Dir
 
Spd
km/h
Gust
km/h
Spd
kts
Gust
kts
01/11:30pm 11.3 8.3 6.2 71 2.4 W 11 15 6 8 1022.8 1022.8 0.0
01/11:00pm 10.4 8.4 6.2 75 1.9 W 6 7 3 4 1022.7 1022.7 0.0
01/10:30pm 10.7 9.8 5.9 72 2.2 CALM 0 0 0 0 1022.5 1022.5 0.0
01/10:00pm 10.5 8.2 5.5 71 2.3 WSW 7 9 4 5 1022.5 1022.5 0.0
01/09:30pm 11.7 9.6 5.6 66 2.8 W 6 9 3 5 1022.3 1022.3 0.0
01/09:00pm 13.1 10.5 6.0 62 3.3 W 9 13 5 7 1022.3 1022.3 0.0
01/08:30pm 14.5 10.8 6.3 58 3.9 WSW 15 20 8 11 1022.1 1022.1 0.0
01/08:00pm 14.8 11.1 6.4 57 4.0 SW 15 20 8 11 1021.9 1021.9 0.0
01/07:30pm 14.8 11.5 6.4 57 4.1 SSW 13 26 7 14 1021.5 1021.5 0.0
01/07:00pm 15.2 11.8 6.0 54 4.4 SSW 13 24 7 13 1020.9 1020.9 0.0
01/06:30pm 15.8 11.3 6.0 52 4.7 S 19 32 10 17 1020.2 1020.2 0.0
01/06:00pm 16.2 11.5 6.1 51 4.9 S 20 37 11 20 1019.7 1019.7 0.0
01/05:30pm 16.5 10.5 5.5 48 5.3 S 26 41 14 22 1019.1 1019.1 0.0
01/05:00pm 17.3 11.0 5.6 46 5.6 S 28 44 15 24 1018.7 1018.7 0.0
01/04:34pm 17.6 10.8 4.9 43 6.1 S 30 52 16 28 1018.1 1018.1 0.0
01/04:30pm 17.8 11.1 5.7 45 5.9 S 30 41 16 22 1018.1 1018.1 0.0
01/04:00pm 18.2 10.1 5.1 42 6.3 S 37 57 20 31 1017.4 1017.4 0.0
01/03:35pm 18.7 10.8 4.5 39 6.8 S 35 56 19 30 1017.1 1017.1 0.0
01/03:30pm 18.9 10.6 4.3 38 7.0 S 37 54 20 29 1017.0 1017.0 0.0
01/03:10pm 19.1 10.3 3.7 36 7.3 S 39 59 21 32 1016.7 1016.7 0.0
01/03:00pm 19.2 10.4 3.8 36 7.3 S 39 56 21 30 1016.6 1016.6 0.0
01/02:30pm 19.5 9.9 3.2 34 7.6 SSW 43 61 23 33 1016.1 1016.1 0.0
01/02:00pm 20.6 11.5 4.2 34 7.9 S 41 61 22 33 1015.8 1015.8 0.0
01/01:30pm 20.5 12.1 5.7 38 7.3 S 39 59 21 32 1015.5 1015.5 0.0
01/01:01pm 20.1 11.0 5.7 39 7.1 S 43 63 23 34 1015.4 1015.4 0.0
01/01:00pm 19.9 10.7 5.5 39 7.1 S 43 59 23 32 1015.3 1015.3 0.0
01/12:30pm 20.2 11.5 7.9 45 6.3 S 43 63 23 34 1015.2 1015.2 0.0
01/12:00pm 20.5 12.3 9.7 50 5.8 S 43 65 23 35 1015.2 1015.2 0.0
01/11:31am 20.2 11.7 9.2 49 5.8 S 44 63 24 34 1015.1 1015.1 0.0
01/11:30am 20.1 11.2 9.1 49 5.8 S 46 63 25 34 1015.1 1015.1 0.0
01/11:00am 21.1 14.4 9.7 48 6.1 S 35 57 19 31 1015.1 1015.1 0.0
01/10:30am 21.0 14.4 12.7 59 4.7 S 39 57 21 31 1015.0 1015.0 0.0
01/10:00am 20.5 14.2 12.2 59 4.6 S 37 52 20 28 1015.1 1015.1 0.0
01/09:42am 20.9 14.6 13.4 62 4.3 S 39 57 21 31 1015.0 1015.0 0.0
01/09:30am 20.5 14.6 13.5 64 4.0 S 37 52 20 28 1014.9 1014.9 0.0
01/09:00am 20.6 15.3 14.3 67 3.7 S 35 52 19 28 1014.6 1014.6 0.0
01/08:30am 20.6 15.8 14.5 68 3.6 S 33 48 18 26 1014.4 1014.4 0.0
01/08:02am 20.5 15.3 14.4 68 3.6 S 35 56 19 30 1013.9 1013.9 0.0
01/08:00am 20.5 15.3 14.6 69 3.4 S 35 50 19 27 1013.9 1013.9 0.0
01/07:41am 21.0 17.0 14.2 65 4.0 S 28 46 15 25 1013.3 1013.3 0.0
01/07:40am 21.1 16.7 14.0 64 4.1 SSW 30 46 16 25 1013.4 1013.4 0.0
01/07:30am 21.0 20.3 14.2 65 4.0 WNW 11 15 6 8 1012.3 1012.3 0.0
01/07:00am 17.2 17.1 15.0 87 1.3 WNW 9 13 5 7 1012.2 1012.2 0.0
01/06:30am 14.4 13.8 13.4 94 0.6 WNW 9 11 5 6 1011.9 1011.9 0.0
01/06:00am 14.0 14.2 13.2 95 0.4 WNW 4 7 2 4 1011.5 1011.5 0.0
01/05:30am 13.8 13.6 13.0 95 0.4 WNW 6 9 3 5 1011.2 1011.2 0.0
01/05:00am 13.8 13.4 12.9 94 0.5 WNW 7 13 4 7 1010.8 1010.8 0.0
01/04:30am 14.4 13.5 13.6 95 0.4 NW 11 13 6 7 1010.4 1010.4 0.0
01/04:00am 14.3 13.8 13.7 96 0.3 WNW 9 13 5 7 1010.3 1010.3 0.0
01/03:30am 14.6 14.7 14.0 96 0.3 N 6 9 3 5 1010.1 1010.1 0.0
01/03:00am 14.3 14.6 13.5 95 0.4 WNW 4 7 2 4 1010.0 1010.0 0.0
01/02:30am 14.4 15.4 13.3 93 0.6 CALM 0 0 0 0 1009.9 1009.9 0.0
01/02:00am 14.5 15.4 13.0 91 0.8 CALM 0 0 0 0 1010.0 1010.0 0.0
01/01:30am 15.1 15.0 13.3 89 1.0 NNW 6 7 3 4 1010.2 1010.2 0.0
01/01:00am 17.2 17.4 15.7 91 0.9 N 9 11 5 6 1010.6 1010.6 0.0
01/12:30am 17.6 17.4 15.8 89 1.1 N 11 15 6 8 1010.9 1010.9 0.0
01/12:00am 17.3 17.8 15.6 90 1.0 N 7 9 4 5 1011.3 1011.3 0.0
 
Date/Time
EST
Temp
°C
App
Temp
°C
Dew
Point
Rel
Hum
%
Delta-T
°C
Wind Press
QNH
hPa
Press
MSL
hPa
Rain
since 9 am
mm
Dir
 
Spd
km/h
Gust
km/h
Spd
kts
Gust
kts
30/11:30pm 18.4 18.7 16.0 86 1.4 N 9 11 5 6 1011.6 1011.6 0.0
30/11:00pm 18.7 18.6 15.9 84 1.7 N 11 24 6 13 1012.1 1012.1 0.0
30/10:30pm 19.1 19.1 16.3 84 1.7 N 11 19 6 10 1012.0 1012.0 0.0
30/10:00pm 18.8 18.9 16.4 86 1.4 N 11 15 6 8 1012.5 1012.5 0.0
30/09:30pm 19.1 19.2 16.5 85 1.6 N 11 15 6 8 1012.6 1012.6 0.0
30/09:00pm 19.7 19.5 16.7 83 1.8 N 13 17 7 9 1013.2 1013.2 0.0
30/08:30pm 19.9 19.6 16.5 81 2.0 NNE 13 15 7 8 1013.2 1013.2 0.0
30/08:00pm 20.0 20.1 16.4 80 2.2 N 11 13 6 7 1014.1 1014.1 0.0
30/07:30pm 20.1 20.1 16.3 79 2.3 N 11 15 6 8 1014.1 1014.1 0.0
30/07:00pm 20.5 19.6 15.9 75 2.7 N 15 20 8 11 1014.0 1014.0 0.0
30/06:30pm 21.1 20.3 16.1 73 3.0 NNE 15 20 8 11 1013.5 1013.5 0.0
30/06:00pm 21.3 21.7 17.3 78 2.5 NE 11 15 6 8 1013.3 1013.3 0.0
30/05:30pm 21.9 22.0 17.5 76 2.7 NE 13 17 7 9 1013.4 1013.4 0.0
30/05:00pm 22.2 21.4 17.1 73 3.1 NE 17 20 9 11 1013.2 1013.2 0.0
30/04:30pm 23.1 23.3 17.6 71 3.4 ENE 13 19 7 10 1013.3 1013.3 0.0
30/04:00pm 23.6 23.6 17.3 67 3.9 NE 13 17 7 9 1013.3 1013.3 0.0
30/03:30pm 23.9 23.9 17.2 66 4.1 ENE 13 17 7 9 1013.2 1013.2 0.0
30/03:00pm 24.1 23.5 16.6 63 4.6 NE 15 20 8 11 1013.0 1013.0 0.0
30/02:30pm 25.2 23.9 16.9 60 5.1 NE 19 26 10 14 1013.1 1013.1 0.0
30/02:00pm 26.4 25.5 17.7 58 5.5 ENE 19 24 10 13 1013.3 1013.3 0.0
30/01:30pm 27.3 25.9 16.6 52 6.6 NE 19 28 10 15 1013.4 1013.4 0.0
30/01:00pm 27.7 26.0 16.3 49 7.0 NE 20 28 11 15 1013.6 1013.6 0.0
30/12:30pm 27.7 26.1 16.6 50 6.9 NE 20 30 11 16 1013.9 1013.9 0.0
30/12:00pm 27.7 26.8 17.8 54 6.3 ENE 19 28 10 15 1014.2 1014.2 0.0
30/11:30am 27.7 26.8 18.1 56 6.1 ENE 20 24 11 13 1014.5 1014.5 0.0
30/11:00am 26.4 26.0 18.0 60 5.3 ENE 17 20 9 11 1015.2 1015.2 0.0
30/10:30am 27.3 26.8 16.9 53 6.5 NNE 15 22 8 12 1015.8 1015.8 0.0
30/10:00am 26.1 24.8 13.6 46 7.4 N 13 19 7 10 1016.4 1016.4 0.0
30/09:30am 25.0 24.5 15.0 53 6.0 NNW 11 17 6 9 1016.8 1016.8 0.0
30/09:00am 23.0 21.7 13.8 56 5.4 N 13 19 7 10 1016.8 1016.8 0.0
30/08:30am 20.9 19.7 14.1 65 3.9 N 13 17 7 9 1016.9 1016.9 0.0
30/08:00am 18.5 17.5 13.4 72 2.9 N 11 13 6 7 1016.9 1016.9 0.0
30/07:30am 15.9 15.4 12.6 81 1.8 NNE 7 11 4 6 1017.1 1017.1 0.0
30/07:00am 14.4 13.9 12.8 90 0.9 N 7 9 4 5 1017.2 1017.2 0.0
30/06:30am 12.9 13.2 12.3 96 0.3 N 2 6 1 3 1017.1 1017.1 0.0
30/06:00am 11.5 11.7 10.7 95 0.4 CALM 0 7 0 4 1016.9 1016.9 0.0
30/05:30am 11.5 10.6 10.7 95 0.4 NW 6 7 3 4 1016.6 1016.6 0.0
30/05:00am 11.9 11.1 11.1 95 0.4 N 6 7 3 4 1016.4 1016.4 0.0
30/04:30am 12.1 11.2 11.5 96 0.3 N 7 9 4 5 1016.2 1016.2 0.0
30/04:00am 12.1 11.1 11.0 93 0.6 N 7 9 4 5 1016.1 1016.1 0.0
30/03:30am 12.7 12.0 11.9 95 0.4 N 7 9 4 5 1016.1 1016.1 0.0
30/03:00am 11.9 11.0 10.6 92 0.7 N 6 7 3 4 1016.0 1016.0 0.0
30/02:30am 13.2 12.5 11.9 92 0.7 N 7 9 4 5 1015.9 1015.9 0.0

Other Formats:

Comma delimited format used in spreadsheet applications
http://www.bom.gov.au/fwo/IDN60801/IDN60801.94786.axf

JavaScript Object Notation format (JSON) in row-major order
http://www.bom.gov.au/fwo/IDN60801/IDN60801.94786.json